createdAt,value
2018-05-23T00:01:01.276Z,19.77
2018-05-23T00:03:29.623Z,21.70
2018-05-23T00:05:57.909Z,19.93
2018-05-23T00:08:26.203Z,16.93
2018-05-23T00:10:54.590Z,18.80
2018-05-23T00:13:22.835Z,17.67
2018-05-23T00:15:51.232Z,21.80
2018-05-23T00:18:19.476Z,19.27
2018-05-23T00:20:47.759Z,21.93
2018-05-23T00:23:16.060Z,15.27
2018-05-23T00:25:44.646Z,18.57
2018-05-23T00:28:12.899Z,16.47
2018-05-23T00:30:41.180Z,22.90
2018-05-23T00:33:09.585Z,16.67
2018-05-23T00:35:37.862Z,17.83
2018-05-23T00:38:06.103Z,17.90
2018-05-23T00:40:34.375Z,17.57
2018-05-23T00:43:02.781Z,15.57
2018-05-23T00:45:31.035Z,17.13
2018-05-23T00:47:59.339Z,17.13
2018-05-23T00:50:27.690Z,16.60
2018-05-23T00:52:55.931Z,17.90
2018-05-23T00:55:30.507Z,16.33
2018-05-23T00:57:58.988Z,19.03
2018-05-23T01:00:27.260Z,20.67
2018-05-23T01:02:55.643Z,26.13
2018-05-23T01:05:24.017Z,25.57
2018-05-23T01:07:52.445Z,19.70
2018-05-23T01:10:20.736Z,19.07
2018-05-23T01:12:49.128Z,18.83
2018-05-23T01:15:17.542Z,19.03
2018-05-23T01:17:45.883Z,22.63
2018-05-23T01:20:14.261Z,19.50
2018-05-23T01:22:42.625Z,19.57
2018-05-23T01:25:11.150Z,20.93
2018-05-23T01:27:39.731Z,22.13
2018-05-23T01:30:08.084Z,23.27
2018-05-23T01:32:36.387Z,18.63
2018-05-23T01:35:04.684Z,16.70
2018-05-23T01:37:33.002Z,18.97
2018-05-23T01:40:01.514Z,19.63
2018-05-23T01:42:29.791Z,25.00
2018-05-23T01:44:58.143Z,21.50
2018-05-23T01:47:26.654Z,16.83
2018-05-23T01:49:55.038Z,16.00
2018-05-23T01:52:23.283Z,18.33
2018-05-23T01:54:51.560Z,18.50
2018-05-23T01:57:20.059Z,21.70
2018-05-23T01:59:48.415Z,18.47
2018-05-23T02:02:16.820Z,17.90
2018-05-23T02:04:45.169Z,18.40
2018-05-23T02:07:13.575Z,18.00
2018-05-23T02:10:09.362Z,21.27
2018-05-23T02:13:04.156Z,15.73
2018-05-23T02:15:32.440Z,22.63
2018-05-23T02:18:00.946Z,25.53
2018-05-23T02:20:29.236Z,18.63
2018-05-23T02:22:57.909Z,18.20
2018-05-23T02:25:26.272Z,19.10
2018-05-23T02:27:54.575Z,23.23
2018-05-23T02:30:22.916Z,19.20
2018-05-23T02:32:51.214Z,21.30
2018-05-23T02:35:19.570Z,17.90
2018-05-23T02:37:47.787Z,22.83
2018-05-23T02:40:16.245Z,18.90
2018-05-23T02:42:44.601Z,19.17
2018-05-23T02:45:12.904Z,21.40
2018-05-23T02:47:41.174Z,13.83
2018-05-23T02:50:09.553Z,18.07
2018-05-23T02:52:38.037Z,20.57
2018-05-23T02:55:06.463Z,16.20
2018-05-23T02:57:34.789Z,14.30
2018-05-23T03:00:03.128Z,16.20
2018-05-23T03:02:31.419Z,17.73
2018-05-23T03:04:59.654Z,16.57
2018-05-23T03:07:27.995Z,20.20
2018-05-23T03:09:56.373Z,18.03
2018-05-23T03:12:24.857Z,22.43
2018-05-23T03:14:53.241Z,18.50
2018-05-23T03:17:21.611Z,22.00
2018-05-23T03:19:49.993Z,21.07
2018-05-23T03:22:18.345Z,16.63
2018-05-23T03:24:46.950Z,18.63
2018-05-23T03:27:15.330Z,20.83
2018-05-23T03:29:43.705Z,19.17
2018-05-23T03:32:11.985Z,23.53
2018-05-23T03:34:40.204Z,22.40
2018-05-23T03:37:08.452Z,21.40
2018-05-23T03:39:36.809Z,24.93
2018-05-23T03:42:05.189Z,23.63
2018-05-23T03:44:33.668Z,23.73
2018-05-23T03:47:02.046Z,24.30
2018-05-23T03:49:30.423Z,24.00
2018-05-23T03:51:58.781Z,23.17
2018-05-23T03:54:27.053Z,25.83
2018-05-23T03:56:55.308Z,23.87
2018-05-23T03:59:29.651Z,24.57
2018-05-23T04:02:04.163Z,24.03
2018-05-23T04:04:38.719Z,21.83
2018-05-23T04:07:13.108Z,20.37
2018-05-23T04:09:41.568Z,23.93
2018-05-23T04:12:09.806Z,24.83
2018-05-23T04:14:38.134Z,20.77
2018-05-23T04:17:06.441Z,19.63
2018-05-23T04:19:34.817Z,20.00
2018-05-23T04:22:03.174Z,16.83
2018-05-23T04:24:31.388Z,22.03
2018-05-23T04:26:59.626Z,19.93
2018-05-23T04:29:27.922Z,22.90
2018-05-23T04:31:56.301Z,20.03
2018-05-23T04:34:24.682Z,20.83
2018-05-23T04:36:52.999Z,21.23
2018-05-23T04:39:21.475Z,22.13
2018-05-23T04:41:50.019Z,21.30
2018-05-23T04:44:18.282Z,17.93
2018-05-23T04:46:46.776Z,16.30
2018-05-23T04:49:15.150Z,20.27
2018-05-23T04:51:43.431Z,17.23
2018-05-23T04:54:11.787Z,23.00
2018-05-23T04:56:40.084Z,18.23
2018-05-23T04:59:08.358Z,15.03
2018-05-23T05:01:36.710Z,18.23
2018-05-23T05:04:05.014Z,15.43
2018-05-23T05:06:33.332Z,19.35
2018-05-23T05:09:01.772Z,17.57
2018-05-23T05:11:30.122Z,16.53
2018-05-23T05:13:58.407Z,19.83
2018-05-23T05:16:26.797Z,15.77
2018-05-23T05:18:55.185Z,20.30
2018-05-23T05:21:23.529Z,18.00
2018-05-23T05:23:51.831Z,20.23
2018-05-23T05:26:20.078Z,18.83
2018-05-23T05:28:48.312Z,19.63
2018-05-23T05:31:16.660Z,28.57
2018-05-23T05:33:44.908Z,25.30
2018-05-23T05:36:13.287Z,27.93
2018-05-23T05:38:41.719Z,24.23
2018-05-23T05:41:10.055Z,24.43
2018-05-23T05:43:38.562Z,26.90
2018-05-23T05:46:06.789Z,25.50
2018-05-23T05:48:35.028Z,21.03
2018-05-23T05:51:03.288Z,24.03
2018-05-23T05:53:31.652Z,21.90
2018-05-23T05:56:00.027Z,21.90
2018-05-23T05:58:28.302Z,18.87
2018-05-23T06:00:56.687Z,24.93
2018-05-23T06:03:25.061Z,20.73
2018-05-23T06:05:53.295Z,10.73
2018-05-23T06:08:21.611Z,17.00
2018-05-23T06:10:49.885Z,13.00
2018-05-23T06:13:18.167Z,15.53
2018-05-23T06:15:46.410Z,15.77
2018-05-23T06:18:14.656Z,21.73
2018-05-23T06:20:43.092Z,17.67
2018-05-23T06:23:11.374Z,13.50
2018-05-23T06:25:39.745Z,16.37
2018-05-23T06:28:08.099Z,14.60
2018-05-23T06:30:36.475Z,19.10
2018-05-23T06:33:04.752Z,16.77
2018-05-23T06:35:33.028Z,13.57
2018-05-23T06:38:01.408Z,15.37
2018-05-23T06:40:29.633Z,14.00
2018-05-23T06:42:57.854Z,16.63
2018-05-23T06:45:26.447Z,15.67
2018-05-23T06:47:54.737Z,16.93
2018-05-23T06:50:23.115Z,13.30
2018-05-23T06:52:51.500Z,18.20
2018-05-23T06:55:19.744Z,16.80
2018-05-23T06:57:48.005Z,15.83
2018-05-23T07:00:16.238Z,18.93
2018-05-23T07:02:44.601Z,17.03
2018-05-23T07:05:12.826Z,15.13
2018-05-23T07:07:41.148Z,14.37
2018-05-23T07:10:09.501Z,16.77
2018-05-23T07:12:37.805Z,18.87
2018-05-23T07:15:06.184Z,15.10
2018-05-23T07:17:34.564Z,19.57
2018-05-23T07:20:02.910Z,15.57
2018-05-23T07:22:31.123Z,23.43
2018-05-23T07:24:59.593Z,21.37
2018-05-23T07:27:27.832Z,17.33
2018-05-23T07:29:56.352Z,20.23
2018-05-23T07:32:24.700Z,19.43
2018-05-23T07:34:52.931Z,25.70
2018-05-23T07:37:21.275Z,19.83
2018-05-23T07:39:49.656Z,27.97
2018-05-23T07:42:17.929Z,26.03
2018-05-23T07:44:46.162Z,13.90
2018-05-23T07:47:14.456Z,10.03
2018-05-23T07:49:43.063Z,9.30
2018-05-23T07:52:11.279Z,10.17
2018-05-23T07:54:39.719Z,10.50
2018-05-23T07:57:08.099Z,9.37
2018-05-23T07:59:36.476Z,9.53
2018-05-23T08:02:04.749Z,5.30
2018-05-23T08:04:33.001Z,4.37
2018-05-23T08:07:01.301Z,3.73
2018-05-23T08:09:29.784Z,4.67
2018-05-23T08:11:58.030Z,3.10
2018-05-23T08:14:26.336Z,5.53
2018-05-23T08:16:54.815Z,9.67
2018-05-23T08:19:23.095Z,4.50
2018-05-23T08:21:51.339Z,4.93
2018-05-23T08:24:19.654Z,4.10
2018-05-23T08:26:48.018Z,5.00
2018-05-23T08:29:16.292Z,4.40
2018-05-23T08:31:44.776Z,4.00
2018-05-23T08:34:13.258Z,4.80
2018-05-23T08:36:41.503Z,5.43
2018-05-23T08:39:09.804Z,7.87
2018-05-23T08:41:38.289Z,6.03
2018-05-23T08:44:06.543Z,7.20
2018-05-23T08:46:34.768Z,6.00
2018-05-23T08:49:02.996Z,8.70
2018-05-23T08:51:31.363Z,6.87
2018-05-23T08:53:59.639Z,10.60
2018-05-23T08:56:28.045Z,9.13
2018-05-23T08:58:56.420Z,13.50
2018-05-23T09:01:24.632Z,8.30
2018-05-23T09:03:52.972Z,6.87
2018-05-23T09:06:21.349Z,4.27
2018-05-23T09:08:49.554Z,4.90
2018-05-23T09:11:17.875Z,4.23
2018-05-23T09:13:46.188Z,7.50
2018-05-23T09:16:14.557Z,3.70
2018-05-23T09:18:42.803Z,3.83
2018-05-23T09:21:11.085Z,4.70
2018-05-23T09:23:39.486Z,4.90
2018-05-23T09:26:07.863Z,5.73
2018-05-23T09:28:36.140Z,5.10
2018-05-23T09:31:04.386Z,3.87
2018-05-23T09:33:32.622Z,2.90
2018-05-23T09:36:00.964Z,4.57
2018-05-23T09:38:29.165Z,8.00
2018-05-23T09:40:57.466Z,6.70
2018-05-23T09:43:25.791Z,4.40
2018-05-23T09:45:54.244Z,3.70
2018-05-23T09:48:22.487Z,5.97
2018-05-23T09:50:50.925Z,3.53
2018-05-23T09:53:19.186Z,7.03
2018-05-23T09:55:47.451Z,4.43
2018-05-23T09:58:15.727Z,4.20
2018-05-23T10:00:44.028Z,9.67
2018-05-23T10:03:12.475Z,4.27
2018-05-23T10:05:40.993Z,4.37
2018-05-23T10:08:09.212Z,5.80
2018-05-23T10:10:37.515Z,5.63
2018-05-23T10:13:05.791Z,5.33
2018-05-23T10:15:34.197Z,7.50
2018-05-23T10:18:02.453Z,5.87
2018-05-23T10:20:30.825Z,9.03
2018-05-23T10:22:59.079Z,11.63
2018-05-23T10:25:27.378Z,15.37
2018-05-23T10:27:55.612Z,7.67
2018-05-23T10:30:23.923Z,8.10
2018-05-23T10:32:52.226Z,8.77
2018-05-23T10:35:20.607Z,10.00
2018-05-23T10:37:48.989Z,8.30
2018-05-23T10:40:17.333Z,12.43
2018-05-23T10:42:45.622Z,10.37
2018-05-23T10:45:13.850Z,8.40
2018-05-23T10:47:42.263Z,10.97
2018-05-23T10:50:10.450Z,12.47
2018-05-23T10:52:38.738Z,10.50
2018-05-23T10:55:07.118Z,11.53
2018-05-23T10:57:35.374Z,14.00
2018-05-23T11:00:03.750Z,12.57
2018-05-23T11:02:31.943Z,20.50
2018-05-23T11:05:00.301Z,14.43
2018-05-23T11:07:28.703Z,11.57
2018-05-23T11:09:56.980Z,13.27
2018-05-23T11:12:25.195Z,13.90
2018-05-23T11:14:53.593Z,11.83
2018-05-23T11:17:21.811Z,10.83
2018-05-23T11:19:50.388Z,11.90
2018-05-23T11:22:18.590Z,10.73
2018-05-23T11:24:46.793Z,11.27
2018-05-23T11:27:15.188Z,9.40
2018-05-23T11:29:43.445Z,8.53
2018-05-23T11:32:11.671Z,9.80
2018-05-23T11:34:40.039Z,14.30
2018-05-23T11:37:08.267Z,14.33
2018-05-23T11:39:36.590Z,12.93
2018-05-23T11:42:04.800Z,8.60
2018-05-23T11:44:33.018Z,13.83
2018-05-23T11:47:01.251Z,10.70
2018-05-23T11:49:29.495Z,11.13
2018-05-23T11:51:57.734Z,13.63
2018-05-23T11:54:26.046Z,9.50
2018-05-23T11:56:54.420Z,10.30
2018-05-23T11:59:22.642Z,13.03
2018-05-23T12:01:50.988Z,9.40
2018-05-23T12:04:19.226Z,10.20
2018-05-23T12:06:47.520Z,13.83
2018-05-23T12:09:15.898Z,10.37
2018-05-23T12:11:44.176Z,9.90
2018-05-23T12:14:12.448Z,7.63
2018-05-23T12:16:40.829Z,12.63
2018-05-23T12:19:09.055Z,6.73
2018-05-23T12:21:37.379Z,5.53
2018-05-23T12:24:05.760Z,8.50
2018-05-23T12:26:34.149Z,9.00
2018-05-23T12:29:02.516Z,8.90
2018-05-23T12:31:30.864Z,7.47
2018-05-23T12:33:59.273Z,12.53
2018-05-23T12:36:27.524Z,12.97
2018-05-23T12:38:55.899Z,6.70
2018-05-23T12:41:24.279Z,9.17
2018-05-23T12:43:52.679Z,7.90
2018-05-23T12:46:21.057Z,8.10
2018-05-23T12:48:49.414Z,9.43
2018-05-23T12:51:17.781Z,9.70
2018-05-23T12:53:46.191Z,10.67
2018-05-23T12:56:14.428Z,9.73
2018-05-23T12:58:43.054Z,10.90
2018-05-23T13:01:11.435Z,10.60
2018-05-23T13:03:39.787Z,12.63
2018-05-23T13:06:08.089Z,9.17
2018-05-23T13:08:36.332Z,13.13
2018-05-23T13:11:04.619Z,10.03
2018-05-23T13:13:32.979Z,8.37
2018-05-23T13:16:01.367Z,9.53
2018-05-23T13:18:29.571Z,10.93
2018-05-23T13:20:57.911Z,8.53
2018-05-23T13:23:26.217Z,11.10
2018-05-23T13:25:54.720Z,8.57
2018-05-23T13:28:23.183Z,10.77
2018-05-23T13:30:51.661Z,10.33
2018-05-23T13:33:20.138Z,8.10
2018-05-23T13:35:48.766Z,9.33
2018-05-23T13:38:17.038Z,8.40
2018-05-23T13:40:45.276Z,13.30
2018-05-23T13:43:13.554Z,9.20
2018-05-23T13:45:41.881Z,5.43
2018-05-23T13:48:10.095Z,9.57
2018-05-23T13:50:38.477Z,8.07
2018-05-23T13:53:06.833Z,10.17
2018-05-23T13:55:35.132Z,9.53
2018-05-23T13:58:03.386Z,11.83
2018-05-23T14:00:31.657Z,10.13
2018-05-23T14:02:59.888Z,13.93
2018-05-23T14:05:28.097Z,9.20
2018-05-23T14:07:56.343Z,10.27
2018-05-23T14:10:24.685Z,11.60
2018-05-23T14:12:53.059Z,28.20
2018-05-23T14:15:22.364Z,7.73
2018-05-23T14:17:50.708Z,7.97
2018-05-23T14:20:18.988Z,9.80
2018-05-23T14:22:47.227Z,12.43
2018-05-23T14:25:15.561Z,12.97
2018-05-23T14:27:43.919Z,11.03
2018-05-23T14:30:12.225Z,4.97
2018-05-23T14:32:40.603Z,8.33
2018-05-23T14:35:08.978Z,10.33
2018-05-23T14:37:37.251Z,7.70
2018-05-23T14:40:05.599Z,8.00
2018-05-23T14:42:33.875Z,10.00
2018-05-23T14:45:02.286Z,6.57
2018-05-23T14:47:30.767Z,9.03
2018-05-23T14:49:59.127Z,7.87
2018-05-23T14:52:27.496Z,12.90
2018-05-23T14:54:55.730Z,10.70
2018-05-23T14:57:24.147Z,13.70
2018-05-23T14:59:52.436Z,7.20
2018-05-23T15:02:20.837Z,10.17
2018-05-23T15:04:49.206Z,10.63
2018-05-23T15:07:17.555Z,10.07
2018-05-23T15:09:45.835Z,8.67
2018-05-23T15:12:14.135Z,12.43
2018-05-23T15:14:42.514Z,10.37
2018-05-23T15:17:10.759Z,13.50
2018-05-23T15:19:39.009Z,6.00
2018-05-23T15:22:07.215Z,12.83
2018-05-23T15:24:35.622Z,9.17
2018-05-23T15:27:03.997Z,8.83
2018-05-23T15:29:32.371Z,7.90
2018-05-23T15:32:00.734Z,8.77
2018-05-23T15:34:29.024Z,13.23
2018-05-23T15:36:57.271Z,35.93
2018-05-23T15:39:25.601Z,11.00
2018-05-23T15:41:54.146Z,5.93
2018-05-23T15:44:22.344Z,10.90
2018-05-23T15:46:50.564Z,9.67
2018-05-23T15:49:18.854Z,13.80
2018-05-23T15:51:47.158Z,13.83
2018-05-23T15:54:15.539Z,9.20
2018-05-23T15:56:43.819Z,10.33
2018-05-23T15:59:12.191Z,9.30
2018-05-23T16:01:40.428Z,8.93
2018-05-23T16:04:08.848Z,6.60
2018-05-23T16:06:37.215Z,13.43
2018-05-23T16:09:05.575Z,11.90
2018-05-23T16:11:33.922Z,10.23
2018-05-23T16:14:02.362Z,6.60
2018-05-23T16:16:30.712Z,10.23
2018-05-23T16:18:58.988Z,7.07
2018-05-23T16:21:27.390Z,9.30
2018-05-23T16:23:55.745Z,10.20
2018-05-23T16:26:24.032Z,10.97
2018-05-23T16:28:52.521Z,9.23
2018-05-23T16:31:20.771Z,11.83
2018-05-23T16:33:49.004Z,9.53
2018-05-23T16:36:17.353Z,16.87
2018-05-23T16:38:45.633Z,29.50
2018-05-23T16:41:14.007Z,9.90
2018-05-23T16:43:42.381Z,8.80
2018-05-23T16:46:10.640Z,7.63
2018-05-23T16:48:38.936Z,10.07
2018-05-23T16:51:07.414Z,11.17
2018-05-23T16:53:35.689Z,8.67
2018-05-23T16:56:03.967Z,7.27
2018-05-23T16:58:32.321Z,9.80
2018-05-23T17:01:00.597Z,7.70
2018-05-23T17:03:28.872Z,9.83
2018-05-23T17:05:57.066Z,10.07
2018-05-23T17:08:25.416Z,5.97
2018-05-23T17:10:53.816Z,6.17
2018-05-23T17:13:22.204Z,6.50
2018-05-23T17:15:50.423Z,5.27
2018-05-23T17:18:18.732Z,5.73
2018-05-23T17:20:47.004Z,7.30
2018-05-23T17:23:15.386Z,9.83
2018-05-23T17:25:43.605Z,8.57
2018-05-23T17:28:11.891Z,8.80
2018-05-23T17:30:40.117Z,7.93
2018-05-23T17:33:08.461Z,11.53
2018-05-23T17:35:36.787Z,10.98
2018-05-23T17:38:06.584Z,9.73
2018-05-23T17:40:34.843Z,8.50
2018-05-23T17:43:03.153Z,10.43
2018-05-23T17:45:31.528Z,10.47
2018-05-23T17:47:59.882Z,7.30
2018-05-23T17:50:28.127Z,8.97
2018-05-23T17:52:56.455Z,9.03
2018-05-23T17:55:24.836Z,7.60
2018-05-23T17:57:53.047Z,7.60
2018-05-23T18:00:21.307Z,7.43
2018-05-23T18:02:49.542Z,7.07
2018-05-23T18:05:17.814Z,7.40
2018-05-23T18:07:46.028Z,6.90
2018-05-23T18:10:14.250Z,6.10
2018-05-23T18:12:42.467Z,4.93
2018-05-23T18:15:10.821Z,5.40
2018-05-23T18:17:39.256Z,9.73
2018-05-23T18:20:07.451Z,6.90
2018-05-23T18:22:35.741Z,6.53
2018-05-23T18:25:04.040Z,7.00
2018-05-23T18:27:32.292Z,7.43
2018-05-23T18:30:00.592Z,9.03
2018-05-23T18:32:28.943Z,8.20
2018-05-23T18:34:57.255Z,7.13
2018-05-23T18:37:25.478Z,8.67
2018-05-23T18:39:53.898Z,9.73
2018-05-23T18:42:22.278Z,7.23
2018-05-23T18:44:50.539Z,8.70
2018-05-23T18:47:18.914Z,6.67
2018-05-23T18:49:47.318Z,7.37
2018-05-23T18:52:15.659Z,4.17
2018-05-23T18:54:43.883Z,7.03
2018-05-23T18:57:12.190Z,6.90
2018-05-23T18:59:40.517Z,9.33
2018-05-23T19:02:08.868Z,5.90
2018-05-23T19:04:37.134Z,10.53
2018-05-23T19:07:05.411Z,7.00
2018-05-23T19:09:33.718Z,5.77
2018-05-23T19:12:02.100Z,4.73
2018-05-23T19:14:30.449Z,6.43
2018-05-23T19:16:58.855Z,4.57
2018-05-23T19:19:27.393Z,3.80
2018-05-23T19:21:55.919Z,6.93
2018-05-23T19:24:24.396Z,6.70
2018-05-23T19:26:53.085Z,9.25
2018-05-23T19:29:22.074Z,10.13
2018-05-23T19:31:51.686Z,11.90
2018-05-23T19:34:21.696Z,7.33
2018-05-23T19:36:51.474Z,8.90
2018-05-23T19:39:21.191Z,7.63
2018-05-23T19:41:50.881Z,9.47
2018-05-23T19:44:20.843Z,9.97
2018-05-23T19:46:50.861Z,8.23
2018-05-23T19:49:20.903Z,23.57
2018-05-23T19:51:50.941Z,13.43
2018-05-23T19:54:21.319Z,13.23
2018-05-23T19:56:51.505Z,13.77
2018-05-23T19:59:22.862Z,12.87
2018-05-23T20:01:53.005Z,9.00
2018-05-23T20:04:23.023Z,11.40
2018-05-23T20:06:52.937Z,9.60
2018-05-23T20:09:22.894Z,14.97
2018-05-23T20:11:52.560Z,10.53
2018-05-23T20:14:21.756Z,12.10
2018-05-23T20:16:50.443Z,14.10
2018-05-23T20:19:18.924Z,10.37
2018-05-23T20:21:47.406Z,13.60
2018-05-23T20:24:15.630Z,50.47
2018-05-23T20:26:43.935Z,13.33
2018-05-23T20:29:12.268Z,15.97
2018-05-23T20:31:40.450Z,16.67
2018-05-23T20:34:08.786Z,11.03
2018-05-23T20:36:37.031Z,13.00
2018-05-23T20:39:05.312Z,14.93
2018-05-23T20:41:33.529Z,10.07
2018-05-23T20:44:01.754Z,13.67
2018-05-23T20:46:30.265Z,12.73
2018-05-23T20:48:58.518Z,13.77
2018-05-23T20:51:26.804Z,11.73
2018-05-23T20:53:55.100Z,14.47
2018-05-23T20:56:23.470Z,10.07
2018-05-23T20:58:51.933Z,11.17
2018-05-23T21:01:20.224Z,14.33
2018-05-23T21:03:48.471Z,15.77
2018-05-23T21:06:16.881Z,15.90
2018-05-23T21:08:45.232Z,22.00
2018-05-23T21:11:13.468Z,10.77
2018-05-23T21:13:41.919Z,14.43
2018-05-23T21:16:10.395Z,14.17
2018-05-23T21:18:38.877Z,10.53
2018-05-23T21:21:07.357Z,10.00
2018-05-23T21:23:35.836Z,9.80
2018-05-23T21:26:04.318Z,12.50
2018-05-23T21:28:32.798Z,10.93
2018-05-23T21:31:01.280Z,10.10
2018-05-23T21:33:29.860Z,10.57
2018-05-23T21:35:58.443Z,6.73
2018-05-23T21:38:26.920Z,11.40
2018-05-23T21:40:55.302Z,10.30
2018-05-23T21:43:23.677Z,7.23
2018-05-23T21:45:52.052Z,11.77
2018-05-23T21:48:20.431Z,10.20
2018-05-23T21:50:48.811Z,6.30
2018-05-23T21:53:17.154Z,6.67
2018-05-23T21:55:45.434Z,9.20
2018-05-23T21:58:13.740Z,9.27
2018-05-23T22:00:42.118Z,8.90
2018-05-23T22:03:10.419Z,7.33
2018-05-23T22:05:38.751Z,9.57
2018-05-23T22:08:07.152Z,10.77
2018-05-23T22:10:35.500Z,7.93
2018-05-23T22:13:03.808Z,7.47
2018-05-23T22:15:32.184Z,8.93
2018-05-23T22:18:00.462Z,7.57
2018-05-23T22:20:28.678Z,15.97
2018-05-23T22:22:57.111Z,12.27
2018-05-23T22:25:25.490Z,11.37
2018-05-23T22:27:53.741Z,9.93
2018-05-23T22:30:22.050Z,9.50
2018-05-23T22:32:50.392Z,7.23
2018-05-23T22:35:18.696Z,7.57
2018-05-23T22:37:46.971Z,5.63
2018-05-23T22:40:15.232Z,10.23
2018-05-23T22:42:43.522Z,9.53
2018-05-23T22:45:11.749Z,8.60
2018-05-23T22:47:39.976Z,7.33
2018-05-23T22:50:08.347Z,9.87
2018-05-23T22:52:36.579Z,7.07
2018-05-23T22:55:04.898Z,8.73
2018-05-23T22:57:33.102Z,10.00
2018-05-23T23:00:01.460Z,8.87
2018-05-23T23:02:29.734Z,12.80
2018-05-23T23:04:58.047Z,8.00
2018-05-23T23:07:26.357Z,7.53
2018-05-23T23:09:54.761Z,8.80
2018-05-23T23:12:23.136Z,7.33
2018-05-23T23:14:51.411Z,7.93
2018-05-23T23:17:19.894Z,8.80
2018-05-23T23:19:48.098Z,9.63
2018-05-23T23:22:22.459Z,7.47
2018-05-23T23:24:50.830Z,9.73
2018-05-23T23:27:19.067Z,10.40
2018-05-23T23:29:47.415Z,7.03
2018-05-23T23:32:15.896Z,6.43
2018-05-23T23:34:44.174Z,6.00
2018-05-23T23:37:12.440Z,6.67
2018-05-23T23:39:41.007Z,7.73
2018-05-23T23:42:09.230Z,8.30
2018-05-23T23:44:37.462Z,7.00
2018-05-23T23:47:05.747Z,5.93
2018-05-23T23:49:34.116Z,7.20
2018-05-23T23:52:02.488Z,7.03
2018-05-23T23:54:30.958Z,7.93
2018-05-23T23:56:59.269Z,6.97
2018-05-23T23:59:27.750Z,7.77
